Ridgway, CO (81432)

12:12 AM MDT on September 01, 2015 (GMT -0600)
APRSWXNET | | Change Station
CLOSE
Current Station
Personal Weather Station
Location: Ridgway, CO
Elevation: 8300 ft
Nearby Weather Stations

Elev 8300 ft 38.20 °N, 107.80 °W | Updated 36 minutes ago

Clear
Clear
58 °F
Feels Like 58 °F
N
5
Wind Variable Wind from South
Gusts 8.0 mph

Today
High -- | Low -- °F
--% Chance of Precip.
Yesterday
High -- | Low -- °F
Precip. -- in
6:40 AM 7:40 PM
Waning Gibbous, 91% visible
Pressure 29.97 in
Visibility 10.0 miles
Clouds Clear
Dew Point 43 °F
Humidity 58%
Rainfall in
Snow Depth Not available.
UV 0 out of 12
Pollen 8.80 out of 12
Air Quality Not available.
Flu Activity Not available.
METAR KMTJ 010553Z AUTO 17004KT 10SM CLR 17/11 A3019 RMK AO2 SLP148 T01720106 10250 20172 50006
Pressure 29.97 in
Visibility 10.0 miles
Clouds Clear
Dew Point 43 °F
Humidity 58%
Rainfall in
Snow Depth Not available.
UV 0 out of 12
Pollen 8.80 out of 12
Air Quality Not available.
Flu Activity Not available.
METAR KMTJ 010553Z AUTO 17004KT 10SM CLR 17/11 A3019 RMK AO2 SLP148 T01720106 10250 20172 50006

10-Day Weather Forecast

×

Almanac

Astronomy

Sep. 01, 2015 Rise Set
Actual Time
Civil Twilight
Nautical Twilight
Astronomical Twilight
Moon
Length of Visible Light
Length of Day
Tomorrow will be .
, % of the Moon is Illuminated

Today's Extremes

State Highs State Lows

Community

WunderPhotos

Upload Photos

1,851,487 photos uploaded!

WunderBlogs® & News

Nearby

Air Quality

  Air Quality AQ Index Pollutant
Not available.

Snow Depth

Station Depth Elevation

Earthquake Activity

City Distance Mag. Time & Date
Minimum magnitude displayed is 2.5.

Coastal Water Temperatures

Place Temperature

Stations

Nearby Weather Stations

Station Location Temp. Windchill Dew Point Humidity Wind Precip. Elev Updated Type